createdAt,value
2022-12-31T00:01:28.075Z,71.70
2022-12-31T00:03:56.606Z,71.50
2022-12-31T00:06:32.619Z,70.00
2022-12-31T00:09:02.263Z,87.30
2022-12-31T00:11:30.625Z,78.80
2022-12-31T00:16:30.875Z,72.60
2022-12-31T00:18:59.897Z,73.00
2022-12-31T00:21:28.851Z,73.00
2022-12-31T00:26:26.127Z,73.20
2022-12-31T00:28:54.563Z,88.10
2022-12-31T00:31:23.873Z,73.20
2022-12-31T00:36:24.171Z,73.30
2022-12-31T00:38:53.159Z,73.20
2022-12-31T00:41:21.523Z,88.60
2022-12-31T00:43:48.992Z,72.30
2022-12-31T00:46:17.013Z,72.10
2022-12-31T00:51:13.842Z,73.30
2022-12-31T00:56:20.732Z,73.20
2022-12-31T01:01:20.957Z,87.90
2022-12-31T01:03:49.912Z,72.60
2022-12-31T01:06:17.118Z,78.30
2022-12-31T01:08:44.886Z,72.40
2022-12-31T01:11:19.228Z,88.30
2022-12-31T01:14:01.845Z,80.10
2022-12-31T01:16:34.760Z,70.70
2022-12-31T01:19:04.396Z,72.80
2022-12-31T01:21:32.033Z,72.10
2022-12-31T01:23:59.514Z,88.40
2022-12-31T01:26:27.163Z,71.80
2022-12-31T01:31:23.109Z,88.20
2022-12-31T01:33:51.155Z,71.20
2022-12-31T01:36:25.570Z,72.10
2022-12-31T01:38:54.402Z,75.00
2022-12-31T01:41:24.508Z,72.10
2022-12-31T01:46:30.009Z,70.40
2022-12-31T01:49:03.022Z,71.90
2022-12-31T01:51:34.448Z,72.10
2022-12-31T01:54:03.800Z,71.80
2022-12-31T01:56:30.990Z,70.70
2022-12-31T02:01:29.200Z,71.90
2022-12-31T02:03:57.288Z,71.10
2022-12-31T02:06:34.928Z,86.40
2022-12-31T02:11:36.557Z,69.80
2022-12-31T02:14:11.769Z,71.60
2022-12-31T02:17:01.015Z,86.60
2022-12-31T02:20:06.133Z,87.70
2022-12-31T02:22:41.824Z,69.90
2022-12-31T02:25:47.720Z,86.20
2022-12-31T02:28:39.046Z,87.20
2022-12-31T02:31:28.888Z,71.80
2022-12-31T02:34:06.364Z,86.30
2022-12-31T02:36:38.274Z,71.50
2022-12-31T02:39:07.471Z,71.30
2022-12-31T02:41:53.547Z,86.20
2022-12-31T02:44:32.274Z,87.40
2022-12-31T02:47:08.060Z,69.70
2022-12-31T02:49:56.365Z,87.40
2022-12-31T02:52:57.700Z,69.60
2022-12-31T02:55:48.851Z,69.60
2022-12-31T02:58:21.739Z,71.40
2022-12-31T03:01:16.486Z,86.40
2022-12-31T03:06:12.109Z,86.80
2022-12-31T03:09:01.098Z,87.50
2022-12-31T03:22:13.470Z,87.40
2022-12-31T03:29:53.549Z,78.10
2022-12-31T03:32:20.497Z,88.10
2022-12-31T03:37:14.635Z,86.60
2022-12-31T03:51:58.061Z,86.50
2022-12-31T03:54:24.967Z,86.50
2022-12-31T03:56:55.365Z,84.50
2022-12-31T03:59:27.373Z,86.60
2022-12-31T04:09:16.263Z,87.90
2022-12-31T04:24:02.707Z,70.50
2022-12-31T04:33:53.905Z,83.00
2022-12-31T04:38:48.080Z,87.10
2022-12-31T04:43:50.571Z,72.00
2022-12-31T04:46:20.679Z,70.10
2022-12-31T04:53:42.492Z,70.80
2022-12-31T04:58:38.418Z,86.20
2022-12-31T05:01:05.979Z,71.10
2022-12-31T05:03:33.817Z,73.90
2022-12-31T05:06:07.018Z,87.70
2022-12-31T05:08:34.159Z,87.90
2022-12-31T05:18:28.613Z,88.70
2022-12-31T05:23:24.321Z,72.40
2022-12-31T05:25:51.509Z,90.00
2022-12-31T05:30:49.497Z,74.30
2022-12-31T05:35:44.122Z,89.10
2022-12-31T05:38:11.590Z,89.40
2022-12-31T05:45:33.141Z,86.50
2022-12-31T05:55:23.658Z,90.30
2022-12-31T06:02:45.471Z,90.40
2022-12-31T06:05:12.513Z,90.30
2022-12-31T06:10:07.132Z,90.30
2022-12-31T06:17:32.432Z,89.60
2022-12-31T06:22:27.064Z,90.20
2022-12-31T06:34:43.518Z,90.60
2022-12-31T06:46:59.695Z,91.10
2022-12-31T06:49:26.576Z,90.40
2022-12-31T06:59:29.115Z,90.90
2022-12-31T07:02:13.376Z,77.80
2022-12-31T07:05:13.071Z,76.10
2022-12-31T07:07:56.122Z,76.70
2022-12-31T07:10:39.533Z,91.50
2022-12-31T07:13:25.120Z,75.70
2022-12-31T07:16:12.631Z,87.80
2022-12-31T07:18:52.629Z,75.50
2022-12-31T07:21:40.323Z,77.70
2022-12-31T07:24:08.766Z,91.60
2022-12-31T07:26:56.215Z,76.40
2022-12-31T07:29:48.453Z,76.90
2022-12-31T07:32:27.509Z,86.90
2022-12-31T07:35:15.285Z,76.80
2022-12-31T07:38:20.962Z,77.40
2022-12-31T07:40:53.788Z,75.40
2022-12-31T07:43:41.248Z,84.90
2022-12-31T07:46:19.196Z,77.10
2022-12-31T07:48:46.313Z,77.50
2022-12-31T07:56:09.394Z,77.40
2022-12-31T07:58:39.925Z,75.40
2022-12-31T08:01:12.519Z,75.30
2022-12-31T08:04:09.743Z,79.30
2022-12-31T08:09:21.730Z,77.50
2022-12-31T08:11:56.995Z,74.70
2022-12-31T08:14:26.725Z,75.40
2022-12-31T08:16:54.471Z,76.00
2022-12-31T08:19:30.666Z,82.10
2022-12-31T08:22:13.194Z,85.00
2022-12-31T08:24:59.355Z,73.80
2022-12-31T08:28:00.140Z,73.60
2022-12-31T08:30:44.456Z,75.30
2022-12-31T08:33:49.539Z,73.70
2022-12-31T08:36:34.308Z,90.20
2022-12-31T08:39:26.470Z,90.20
2022-12-31T08:41:57.080Z,75.40
2022-12-31T08:44:45.848Z,90.60
2022-12-31T08:47:38.569Z,75.60
2022-12-31T08:50:06.765Z,90.70
2022-12-31T08:55:01.272Z,81.30
2022-12-31T08:57:42.173Z,75.80
2022-12-31T09:00:16.240Z,74.10
2022-12-31T09:03:14.483Z,90.70
2022-12-31T09:06:03.287Z,76.50
2022-12-31T09:08:42.039Z,74.20
2022-12-31T09:11:40.822Z,90.60
2022-12-31T09:14:23.515Z,74.50
2022-12-31T09:16:53.094Z,74.00
2022-12-31T09:19:20.651Z,76.90
2022-12-31T09:24:15.730Z,90.20
2022-12-31T09:27:09.613Z,73.60
2022-12-31T09:30:01.313Z,90.30
2022-12-31T09:33:00.361Z,90.10
2022-12-31T09:35:46.176Z,72.80
2022-12-31T09:38:44.075Z,89.80
2022-12-31T09:41:33.900Z,71.90
2022-12-31T09:44:12.663Z,88.30
2022-12-31T09:46:51.236Z,76.10
2022-12-31T09:49:39.289Z,71.70
2022-12-31T09:52:38.775Z,71.60
2022-12-31T09:55:33.520Z,71.60
2022-12-31T10:00:38.899Z,70.30
2022-12-31T10:03:20.914Z,70.50
2022-12-31T10:06:17.930Z,88.00
2022-12-31T10:11:43.239Z,85.80
2022-12-31T10:14:31.338Z,68.60
2022-12-31T10:19:50.241Z,69.90
2022-12-31T10:22:36.300Z,69.10
2022-12-31T10:25:19.453Z,74.00
2022-12-31T10:28:05.751Z,68.90
2022-12-31T10:30:35.729Z,70.00
2022-12-31T10:35:47.936Z,70.30
2022-12-31T10:38:27.771Z,70.10
2022-12-31T10:41:23.066Z,69.00
2022-12-31T10:44:23.740Z,68.60
2022-12-31T10:47:12.128Z,84.50
2022-12-31T10:49:41.831Z,84.10
2022-12-31T10:52:41.579Z,84.20
2022-12-31T10:55:26.643Z,84.60
2022-12-31T10:58:06.336Z,68.70
2022-12-31T11:00:54.214Z,67.20
2022-12-31T11:03:40.097Z,82.90
2022-12-31T11:06:31.717Z,67.40
2022-12-31T11:09:10.600Z,83.50
2022-12-31T11:14:27.426Z,74.90
2022-12-31T11:17:22.282Z,68.50
2022-12-31T11:20:31.243Z,84.30
2022-12-31T11:23:06.020Z,69.00
2022-12-31T11:25:39.015Z,86.30
2022-12-31T11:30:53.561Z,69.20
2022-12-31T11:33:51.116Z,69.90
2022-12-31T11:36:33.591Z,80.20
2022-12-31T11:39:38.121Z,69.40
2022-12-31T11:42:11.270Z,86.10
2022-12-31T11:44:53.170Z,68.20
2022-12-31T11:48:29.102Z,70.20
2022-12-31T11:51:27.737Z,67.10
2022-12-31T11:53:57.500Z,81.70
2022-12-31T11:56:31.435Z,80.90
2022-12-31T12:02:00.602Z,82.10
2022-12-31T12:09:31.562Z,78.50
2022-12-31T12:12:04.060Z,63.80
2022-12-31T12:14:40.847Z,64.10
2022-12-31T12:17:16.853Z,80.80
2022-12-31T12:19:53.714Z,65.20
2022-12-31T12:22:23.772Z,65.10
2022-12-31T12:24:57.094Z,62.80
2022-12-31T12:27:28.622Z,64.80
2022-12-31T12:32:25.737Z,78.90
2022-12-31T12:34:53.009Z,78.50
2022-12-31T12:37:36.420Z,63.00
2022-12-31T12:45:07.486Z,79.00
2022-12-31T12:47:35.017Z,63.30
2022-12-31T12:55:07.448Z,63.90
2022-12-31T12:57:55.013Z,62.40
2022-12-31T13:00:25.080Z,79.30
2022-12-31T13:03:09.959Z,62.60
2022-12-31T13:05:45.493Z,79.20
2022-12-31T13:08:49.823Z,62.10
2022-12-31T13:13:59.097Z,63.80
2022-12-31T13:16:48.017Z,78.20
2022-12-31T13:19:27.865Z,62.20
2022-12-31T13:22:27.623Z,74.00
2022-12-31T13:25:22.837Z,62.70
2022-12-31T13:27:53.953Z,79.20
2022-12-31T13:30:28.057Z,64.50
2022-12-31T13:33:20.434Z,63.00
2022-12-31T13:35:52.002Z,64.40
2022-12-31T13:38:33.723Z,73.90
2022-12-31T13:41:05.925Z,64.10
2022-12-31T13:43:50.676Z,75.70
2022-12-31T13:46:40.782Z,63.20
2022-12-31T13:49:19.110Z,79.90
2022-12-31T13:51:52.360Z,68.70
2022-12-31T13:54:38.253Z,79.00
2022-12-31T13:57:27.563Z,63.80
2022-12-31T14:00:02.190Z,64.30
2022-12-31T14:02:55.676Z,64.20
2022-12-31T14:05:37.788Z,64.00
2022-12-31T14:08:06.809Z,77.80
2022-12-31T14:10:58.773Z,61.80
2022-12-31T14:13:51.929Z,60.90
2022-12-31T14:16:40.520Z,59.80
2022-12-31T14:19:22.765Z,61.40
2022-12-31T14:22:05.076Z,76.20
2022-12-31T14:27:03.714Z,60.40
2022-12-31T14:29:57.984Z,75.30
2022-12-31T14:32:36.098Z,60.20
2022-12-31T14:35:23.463Z,60.60
2022-12-31T14:38:00.166Z,70.20
2022-12-31T14:41:01.208Z,64.20
2022-12-31T14:43:45.117Z,57.80
2022-12-31T14:46:25.490Z,74.30
2022-12-31T14:49:11.171Z,75.00
2022-12-31T14:56:42.516Z,57.90
2022-12-31T14:59:26.338Z,71.40
2022-12-31T15:01:53.869Z,58.20
2022-12-31T15:04:43.005Z,57.50
2022-12-31T15:07:37.096Z,66.70
2022-12-31T15:10:34.340Z,57.70
2022-12-31T15:13:21.061Z,74.70
2022-12-31T15:16:35.599Z,56.90
2022-12-31T15:19:24.123Z,58.10
2022-12-31T15:22:08.944Z,73.70
2022-12-31T15:24:42.484Z,73.30
2022-12-31T15:27:23.150Z,56.80
2022-12-31T15:29:50.059Z,71.60
2022-12-31T15:32:20.848Z,67.20
2022-12-31T15:37:35.988Z,59.80
2022-12-31T15:40:18.699Z,51.70
2022-12-31T15:43:09.167Z,53.50
2022-12-31T15:45:41.076Z,68.00
2022-12-31T15:48:17.934Z,52.60
2022-12-31T15:50:46.410Z,51.10
2022-12-31T15:53:28.571Z,50.50
2022-12-31T15:55:59.408Z,52.10
2022-12-31T15:58:30.916Z,68.30
2022-12-31T16:01:10.040Z,67.40
2022-12-31T16:03:37.375Z,50.20
2022-12-31T16:06:11.540Z,50.50
2022-12-31T16:11:08.537Z,50.10
2022-12-31T16:13:40.294Z,50.60
2022-12-31T16:16:31.620Z,65.60
2022-12-31T16:19:00.200Z,66.20
2022-12-31T16:21:35.819Z,50.30
2022-12-31T16:26:49.672Z,49.60
2022-12-31T16:29:18.819Z,49.70
2022-12-31T16:31:47.591Z,49.00
2022-12-31T16:34:18.159Z,48.80
2022-12-31T16:36:58.312Z,60.70
2022-12-31T16:39:31.417Z,48.20
2022-12-31T16:42:13.642Z,46.40
2022-12-31T16:44:41.367Z,47.10
2022-12-31T16:47:15.184Z,59.70
2022-12-31T16:49:42.907Z,63.10
2022-12-31T16:52:32.015Z,47.70
2022-12-31T16:54:59.734Z,63.70
2022-12-31T16:57:30.259Z,63.40
2022-12-31T17:00:06.503Z,45.90
2022-12-31T17:02:41.339Z,45.50
2022-12-31T17:05:25.014Z,63.20
2022-12-31T17:07:52.601Z,46.50
2022-12-31T17:10:32.643Z,61.80
2022-12-31T17:15:51.145Z,62.10
2022-12-31T17:18:22.163Z,46.30
2022-12-31T17:20:51.434Z,62.30
2022-12-31T17:23:39.830Z,60.00
2022-12-31T17:26:13.267Z,43.90
2022-12-31T17:28:51.337Z,45.30
2022-12-31T17:31:34.881Z,60.40
2022-12-31T17:34:06.196Z,43.90
2022-12-31T17:36:33.323Z,59.80
2022-12-31T17:39:21.639Z,43.90
2022-12-31T17:41:51.282Z,44.70
2022-12-31T17:44:21.468Z,45.20
2022-12-31T17:46:50.187Z,57.60
2022-12-31T17:49:17.734Z,44.80
2022-12-31T17:51:47.701Z,60.30
2022-12-31T17:54:19.190Z,60.10
2022-12-31T17:59:20.677Z,44.00
2022-12-31T18:01:48.648Z,57.30
2022-12-31T18:04:17.478Z,55.60
2022-12-31T18:06:44.788Z,57.80
2022-12-31T18:11:40.589Z,42.30
2022-12-31T18:21:33.011Z,50.60
2022-12-31T18:26:28.751Z,41.90
2022-12-31T18:28:58.148Z,42.80
2022-12-31T18:31:30.822Z,41.60
2022-12-31T18:33:58.768Z,42.10
2022-12-31T18:36:26.007Z,58.10
2022-12-31T18:38:53.294Z,40.80
2022-12-31T18:41:26.923Z,57.10
2022-12-31T18:46:24.382Z,56.60
2022-12-31T18:51:23.968Z,55.90
2022-12-31T18:53:53.385Z,50.30
2022-12-31T18:56:21.322Z,40.00
2022-12-31T18:58:48.675Z,54.00
2022-12-31T19:01:26.244Z,37.50
2022-12-31T19:03:55.182Z,54.70
2022-12-31T19:08:49.749Z,53.90
2022-12-31T19:18:41.624Z,37.70
2022-12-31T19:21:20.291Z,37.40
2022-12-31T19:23:47.404Z,54.60
2022-12-31T19:26:19.514Z,35.90
2022-12-31T19:31:14.337Z,36.10
2022-12-31T19:33:41.604Z,53.60
2022-12-31T19:36:16.434Z,53.80
2022-12-31T19:38:44.229Z,37.20
2022-12-31T19:41:19.765Z,36.20
2022-12-31T19:43:48.036Z,37.90
2022-12-31T19:46:16.583Z,46.90
2022-12-31T19:51:16.617Z,37.00
2022-12-31T19:53:43.859Z,52.90
2022-12-31T19:56:18.329Z,53.80
2022-12-31T20:01:19.574Z,36.90
2022-12-31T20:11:21.482Z,53.40
2022-12-31T20:13:50.004Z,37.10
2022-12-31T20:16:19.327Z,36.70
2022-12-31T20:18:47.450Z,52.40
2022-12-31T20:21:23.128Z,35.60
2022-12-31T20:23:51.624Z,53.10
2022-12-31T20:26:20.433Z,36.00
2022-12-31T20:31:18.490Z,36.40
2022-12-31T20:33:45.724Z,51.80
2022-12-31T20:36:14.770Z,35.40
2022-12-31T20:38:41.882Z,51.20
2022-12-31T20:41:12.420Z,51.10
2022-12-31T20:46:21.742Z,44.80
2022-12-31T20:48:50.223Z,37.80
2022-12-31T20:51:18.484Z,41.10
2022-12-31T20:53:59.639Z,37.70
2022-12-31T20:56:28.581Z,35.50
2022-12-31T20:58:55.937Z,48.90
2022-12-31T21:01:23.254Z,45.30
2022-12-31T21:06:35.578Z,51.50
2022-12-31T21:09:05.483Z,35.70
2022-12-31T21:14:18.822Z,44.30
2022-12-31T21:16:45.824Z,50.80
2022-12-31T21:24:07.645Z,40.70
2022-12-31T21:38:51.172Z,46.30
2022-12-31T21:44:04.057Z,51.40
2022-12-31T21:49:00.337Z,35.50
2022-12-31T21:56:22.531Z,47.00
2022-12-31T21:59:14.634Z,35.30
2022-12-31T22:05:02.042Z,34.90
2022-12-31T22:09:42.461Z,50.80
2022-12-31T22:14:36.497Z,49.50
2022-12-31T22:17:03.333Z,49.60
2022-12-31T22:19:30.366Z,45.70
2022-12-31T22:24:24.464Z,47.00
2022-12-31T22:29:21.548Z,49.80
2022-12-31T22:34:15.822Z,42.10
2022-12-31T22:39:14.712Z,49.90
2022-12-31T22:42:01.694Z,49.20
2022-12-31T22:44:28.583Z,49.20
2022-12-31T22:56:54.033Z,48.40
2022-12-31T22:59:20.889Z,48.90
2022-12-31T23:09:33.745Z,50.50
2022-12-31T23:12:00.819Z,41.30
2022-12-31T23:17:38.476Z,54.80
2022-12-31T23:20:25.905Z,54.70
2022-12-31T23:23:11.541Z,55.20
2022-12-31T23:25:45.410Z,54.00
2022-12-31T23:28:24.244Z,35.90
2022-12-31T23:33:21.649Z,37.70
2022-12-31T23:35:48.978Z,53.70
2022-12-31T23:38:18.001Z,37.80
2022-12-31T23:40:45.322Z,54.10
2022-12-31T23:43:20.319Z,55.20
2022-12-31T23:45:49.268Z,38.60
2022-12-31T23:50:47.657Z,53.80
2022-12-31T23:53:17.888Z,53.60
2022-12-31T23:55:44.710Z,49.60
2022-12-31T23:58:11.537Z,54.50
